sensor_id;sensor_type;location;lat;lon;timestamp;temperature;humidity
5960;DHT22;3006;50.956;7.002;2024-01-16T00:00:01;1.00;96.60
5960;DHT22;3006;50.956;7.002;2024-01-16T00:02:31;1.00;96.60
5960;DHT22;3006;50.956;7.002;2024-01-16T00:05:00;1.10;96.60
5960;DHT22;3006;50.956;7.002;2024-01-16T00:07:28;1.00;96.70
5960;DHT22;3006;50.956;7.002;2024-01-16T00:09:56;1.00;96.60
5960;DHT22;3006;50.956;7.002;2024-01-16T00:12:24;1.00;96.80
5960;DHT22;3006;50.956;7.002;2024-01-16T00:14:52;1.00;96.50
5960;DHT22;3006;50.956;7.002;2024-01-16T00:17:20;1.00;96.60
5960;DHT22;3006;50.956;7.002;2024-01-16T00:19:50;0.90;97.20
5960;DHT22;3006;50.956;7.002;2024-01-16T00:22:18;1.00;96.70
5960;DHT22;3006;50.956;7.002;2024-01-16T00:24:47;0.90;97.00
5960;DHT22;3006;50.956;7.002;2024-01-16T00:27:15;1.00;97.40
5960;DHT22;3006;50.956;7.002;2024-01-16T00:29:43;1.00;97.00
5960;DHT22;3006;50.956;7.002;2024-01-16T00:32:11;1.00;96.70
5960;DHT22;3006;50.956;7.002;2024-01-16T00:34:43;1.00;96.80
5960;DHT22;3006;50.956;7.002;2024-01-16T00:37:12;1.00;96.60
5960;DHT22;3006;50.956;7.002;2024-01-16T00:39:40;1.00;96.50
5960;DHT22;3006;50.956;7.002;2024-01-16T00:42:09;1.00;96.50
5960;DHT22;3006;50.956;7.002;2024-01-16T00:44:37;1.00;96.00
5960;DHT22;3006;50.956;7.002;2024-01-16T00:47:05;1.00;96.50
5960;DHT22;3006;50.956;7.002;2024-01-16T00:49:35;1.00;96.20
5960;DHT22;3006;50.956;7.002;2024-01-16T00:52:04;1.10;96.00
5960;DHT22;3006;50.956;7.002;2024-01-16T00:54:34;1.10;96.10
5960;DHT22;3006;50.956;7.002;2024-01-16T00:57:03;1.00;96.30
5960;DHT22;3006;50.956;7.002;2024-01-16T00:59:31;1.00;96.20
5960;DHT22;3006;50.956;7.002;2024-01-16T01:02:00;0.90;96.60
5960;DHT22;3006;50.956;7.002;2024-01-16T01:04:28;1.00;96.60
5960;DHT22;3006;50.956;7.002;2024-01-16T01:06:56;1.00;96.60
5960;DHT22;3006;50.956;7.002;2024-01-16T01:09:24;0.80;97.10
5960;DHT22;3006;50.956;7.002;2024-01-16T01:11:54;0.90;96.80
5960;DHT22;3006;50.956;7.002;2024-01-16T01:14:22;0.90;96.50
5960;DHT22;3006;50.956;7.002;2024-01-16T01:16:52;1.00;96.30
5960;DHT22;3006;50.956;7.002;2024-01-16T01:19:21;0.80;96.40
5960;DHT22;3006;50.956;7.002;2024-01-16T01:21:49;0.80;96.80
5960;DHT22;3006;50.956;7.002;2024-01-16T01:24:17;0.80;96.70
5960;DHT22;3006;50.956;7.002;2024-01-16T01:26:46;0.80;96.80
5960;DHT22;3006;50.956;7.002;2024-01-16T01:29:15;1.00;96.00
5960;DHT22;3006;50.956;7.002;2024-01-16T01:31:45;1.00;96.10
5960;DHT22;3006;50.956;7.002;2024-01-16T01:34:14;1.00;96.00
5960;DHT22;3006;50.956;7.002;2024-01-16T01:36:43;1.00;96.00
5960;DHT22;3006;50.956;7.002;2024-01-16T01:39:11;1.00;96.10
5960;DHT22;3006;50.956;7.002;2024-01-16T01:41:39;1.00;95.80
5960;DHT22;3006;50.956;7.002;2024-01-16T01:44:08;0.90;96.00
5960;DHT22;3006;50.956;7.002;2024-01-16T01:46:44;0.90;96.10
5960;DHT22;3006;50.956;7.002;2024-01-16T01:49:14;0.80;96.30
5960;DHT22;3006;50.956;7.002;2024-01-16T01:51:43;0.80;96.50
5960;DHT22;3006;50.956;7.002;2024-01-16T01:54:13;0.90;96.20
5960;DHT22;3006;50.956;7.002;2024-01-16T01:56:43;0.80;96.50
5960;DHT22;3006;50.956;7.002;2024-01-16T01:59:13;1.00;96.30
5960;DHT22;3006;50.956;7.002;2024-01-16T02:01:43;0.90;96.30
5960;DHT22;3006;50.956;7.002;2024-01-16T02:04:14;0.90;96.90
5960;DHT22;3006;50.956;7.002;2024-01-16T02:06:42;0.80;96.50
5960;DHT22;3006;50.956;7.002;2024-01-16T02:09:12;0.80;96.70
5960;DHT22;3006;50.956;7.002;2024-01-16T02:11:40;0.90;96.60
5960;DHT22;3006;50.956;7.002;2024-01-16T02:14:09;0.80;96.90
5960;DHT22;3006;50.956;7.002;2024-01-16T02:16:39;0.80;97.00
5960;DHT22;3006;50.956;7.002;2024-01-16T02:19:08;0.80;97.00
5960;DHT22;3006;50.956;7.002;2024-01-16T02:21:39;0.80;97.60
5960;DHT22;3006;50.956;7.002;2024-01-16T02:24:10;0.80;97.60
5960;DHT22;3006;50.956;7.002;2024-01-16T02:26:38;0.80;97.70
5960;DHT22;3006;50.956;7.002;2024-01-16T02:29:07;0.80;97.50
5960;DHT22;3006;50.956;7.002;2024-01-16T02:31:35;0.80;97.50
5960;DHT22;3006;50.956;7.002;2024-01-16T02:34:04;0.80;97.40
5960;DHT22;3006;50.956;7.002;2024-01-16T02:36:33;0.80;97.30
5960;DHT22;3006;50.956;7.002;2024-01-16T02:39:01;0.90;97.20
5960;DHT22;3006;50.956;7.002;2024-01-16T02:41:30;0.80;97.10
5960;DHT22;3006;50.956;7.002;2024-01-16T02:43:59;0.80;97.50
5960;DHT22;3006;50.956;7.002;2024-01-16T02:46:27;0.80;97.60
5960;DHT22;3006;50.956;7.002;2024-01-16T02:48:55;0.80;97.10
5960;DHT22;3006;50.956;7.002;2024-01-16T02:51:23;0.80;97.00
5960;DHT22;3006;50.956;7.002;2024-01-16T02:53:51;0.80;96.70
5960;DHT22;3006;50.956;7.002;2024-01-16T02:56:20;0.70;97.70
5960;DHT22;3006;50.956;7.002;2024-01-16T02:58:49;0.80;97.20
5960;DHT22;3006;50.956;7.002;2024-01-16T03:01:17;0.60;97.10
5960;DHT22;3006;50.956;7.002;2024-01-16T03:03:46;0.80;97.00
5960;DHT22;3006;50.956;7.002;2024-01-16T03:06:21;0.80;97.10
5960;DHT22;3006;50.956;7.002;2024-01-16T03:08:50;0.90;96.40
5960;DHT22;3006;50.956;7.002;2024-01-16T03:11:19;0.80;96.90
5960;DHT22;3006;50.956;7.002;2024-01-16T03:13:48;0.80;97.30
5960;DHT22;3006;50.956;7.002;2024-01-16T03:16:19;0.80;96.80
5960;DHT22;3006;50.956;7.002;2024-01-16T03:18:47;0.80;97.40
5960;DHT22;3006;50.956;7.002;2024-01-16T03:21:16;0.80;97.20
5960;DHT22;3006;50.956;7.002;2024-01-16T03:23:44;0.70;97.40
5960;DHT22;3006;50.956;7.002;2024-01-16T03:26:13;0.60;98.00
5960;DHT22;3006;50.956;7.002;2024-01-16T03:28:42;0.70;98.00
5960;DHT22;3006;50.956;7.002;2024-01-16T03:31:12;0.80;97.40
5960;DHT22;3006;50.956;7.002;2024-01-16T03:33:40;0.80;97.60
5960;DHT22;3006;50.956;7.002;2024-01-16T03:36:11;0.80;97.70
5960;DHT22;3006;50.956;7.002;2024-01-16T03:38:41;0.70;97.60
5960;DHT22;3006;50.956;7.002;2024-01-16T03:41:11;0.80;97.50
5960;DHT22;3006;50.956;7.002;2024-01-16T03:43:39;0.80;97.50
5960;DHT22;3006;50.956;7.002;2024-01-16T03:46:11;0.70;97.30
5960;DHT22;3006;50.956;7.002;2024-01-16T03:48:40;0.70;97.20
5960;DHT22;3006;50.956;7.002;2024-01-16T03:51:09;0.80;97.10
5960;DHT22;3006;50.956;7.002;2024-01-16T03:53:37;0.80;96.40
5960;DHT22;3006;50.956;7.002;2024-01-16T03:56:06;0.80;96.50
5960;DHT22;3006;50.956;7.002;2024-01-16T03:58:34;0.80;96.20
5960;DHT22;3006;50.956;7.002;2024-01-16T04:01:03;0.80;96.10
5960;DHT22;3006;50.956;7.002;2024-01-16T04:03:33;0.80;96.60
5960;DHT22;3006;50.956;7.002;2024-01-16T04:06:01;0.80;96.50
5960;DHT22;3006;50.956;7.002;2024-01-16T04:08:30;0.80;96.40
5960;DHT22;3006;50.956;7.002;2024-01-16T04:10:58;0.80;96.40
5960;DHT22;3006;50.956;7.002;2024-01-16T04:13:27;0.80;96.50
5960;DHT22;3006;50.956;7.002;2024-01-16T04:15:55;0.80;97.20
5960;DHT22;3006;50.956;7.002;2024-01-16T04:18:23;0.80;97.00
5960;DHT22;3006;50.956;7.002;2024-01-16T04:20:53;0.70;97.20
5960;DHT22;3006;50.956;7.002;2024-01-16T04:23:21;0.60;97.90
5960;DHT22;3006;50.956;7.002;2024-01-16T04:25:49;0.70;97.70
5960;DHT22;3006;50.956;7.002;2024-01-16T04:28:17;0.70;97.50
5960;DHT22;3006;50.956;7.002;2024-01-16T04:30:46;0.80;97.40
5960;DHT22;3006;50.956;7.002;2024-01-16T04:33:14;0.80;97.00
5960;DHT22;3006;50.956;7.002;2024-01-16T04:35:42;0.80;96.90
5960;DHT22;3006;50.956;7.002;2024-01-16T04:38:12;0.60;98.00
5960;DHT22;3006;50.956;7.002;2024-01-16T04:40:40;0.60;98.30
5960;DHT22;3006;50.956;7.002;2024-01-16T04:43:08;0.50;98.40
5960;DHT22;3006;50.956;7.002;2024-01-16T04:45:36;0.50;98.70
5960;DHT22;3006;50.956;7.002;2024-01-16T04:48:05;0.60;98.20
5960;DHT22;3006;50.956;7.002;2024-01-16T04:50:34;0.60;98.00
5960;DHT22;3006;50.956;7.002;2024-01-16T04:53:02;0.60;97.60
5960;DHT22;3006;50.956;7.002;2024-01-16T04:55:32;0.70;97.10
5960;DHT22;3006;50.956;7.002;2024-01-16T04:58:00;0.60;97.30
5960;DHT22;3006;50.956;7.002;2024-01-16T05:00:28;0.60;97.40
5960;DHT22;3006;50.956;7.002;2024-01-16T05:02:56;0.60;96.90
5960;DHT22;3006;50.956;7.002;2024-01-16T05:05:24;0.70;96.30
5960;DHT22;3006;50.956;7.002;2024-01-16T05:07:56;0.70;96.10
5960;DHT22;3006;50.956;7.002;2024-01-16T05:10:24;0.60;96.40
5960;DHT22;3006;50.956;7.002;2024-01-16T05:12:54;0.70;95.80
5960;DHT22;3006;50.956;7.002;2024-01-16T05:15:22;0.70;96.00
5960;DHT22;3006;50.956;7.002;2024-01-16T05:17:50;0.70;96.60
5960;DHT22;3006;50.956;7.002;2024-01-16T05:20:18;0.60;96.70
5960;DHT22;3006;50.956;7.002;2024-01-16T05:22:46;0.60;96.60
5960;DHT22;3006;50.956;7.002;2024-01-16T05:25:15;0.60;96.30
5960;DHT22;3006;50.956;7.002;2024-01-16T05:27:44;0.60;96.30
5960;DHT22;3006;50.956;7.002;2024-01-16T05:30:13;0.60;96.30
5960;DHT22;3006;50.956;7.002;2024-01-16T05:32:42;0.60;96.50
5960;DHT22;3006;50.956;7.002;2024-01-16T05:35:10;0.60;96.50
5960;DHT22;3006;50.956;7.002;2024-01-16T05:37:38;0.60;97.20
5960;DHT22;3006;50.956;7.002;2024-01-16T05:40:07;0.60;97.00
5960;DHT22;3006;50.956;7.002;2024-01-16T05:42:36;0.60;97.00
5960;DHT22;3006;50.956;7.002;2024-01-16T05:45:05;0.60;96.70
5960;DHT22;3006;50.956;7.002;2024-01-16T05:47:34;0.70;96.30
5960;DHT22;3006;50.956;7.002;2024-01-16T05:50:03;0.80;96.40
5960;DHT22;3006;50.956;7.002;2024-01-16T05:52:32;0.70;96.20
5960;DHT22;3006;50.956;7.002;2024-01-16T05:55:00;0.80;95.90
5960;DHT22;3006;50.956;7.002;2024-01-16T05:57:29;0.80;95.60
5960;DHT22;3006;50.956;7.002;2024-01-16T06:00:00;0.70;95.50
5960;DHT22;3006;50.956;7.002;2024-01-16T06:02:31;0.70;95.40
5960;DHT22;3006;50.956;7.002;2024-01-16T06:05:02;0.80;95.00
5960;DHT22;3006;50.956;7.002;2024-01-16T06:07:31;0.80;94.60
5960;DHT22;3006;50.956;7.002;2024-01-16T06:09:59;0.80;94.80
5960;DHT22;3006;50.956;7.002;2024-01-16T06:12:27;0.80;94.40
5960;DHT22;3006;50.956;7.002;2024-01-16T06:14:55;0.70;94.70
5960;DHT22;3006;50.956;7.002;2024-01-16T06:17:25;0.70;94.70
5960;DHT22;3006;50.956;7.002;2024-01-16T06:19:53;0.80;94.20
5960;DHT22;3006;50.956;7.002;2024-01-16T06:22:22;0.80;94.20
5960;DHT22;3006;50.956;7.002;2024-01-16T06:24:50;0.70;94.10
5960;DHT22;3006;50.956;7.002;2024-01-16T06:27:19;0.70;93.50
5960;DHT22;3006;50.956;7.002;2024-01-16T06:29:47;0.80;93.30
5960;DHT22;3006;50.956;7.002;2024-01-16T06:32:15;0.80;93.30
5960;DHT22;3006;50.956;7.002;2024-01-16T06:34:43;0.80;93.00
5960;DHT22;3006;50.956;7.002;2024-01-16T06:37:11;0.80;92.60
5960;DHT22;3006;50.956;7.002;2024-01-16T06:39:41;0.80;92.40
5960;DHT22;3006;50.956;7.002;2024-01-16T06:42:09;0.80;92.50
5960;DHT22;3006;50.956;7.002;2024-01-16T06:44:37;0.90;91.90
5960;DHT22;3006;50.956;7.002;2024-01-16T06:47:06;0.80;91.90
5960;DHT22;3006;50.956;7.002;2024-01-16T06:49:34;0.80;92.00
5960;DHT22;3006;50.956;7.002;2024-01-16T06:52:03;0.80;92.00
5960;DHT22;3006;50.956;7.002;2024-01-16T06:54:31;0.80;91.20
5960;DHT22;3006;50.956;7.002;2024-01-16T06:57:00;0.80;90.50
5960;DHT22;3006;50.956;7.002;2024-01-16T06:59:28;0.80;90.90
5960;DHT22;3006;50.956;7.002;2024-01-16T07:01:57;0.80;90.90
5960;DHT22;3006;50.956;7.002;2024-01-16T07:04:25;0.80;90.00
5960;DHT22;3006;50.956;7.002;2024-01-16T07:06:53;0.80;90.10
5960;DHT22;3006;50.956;7.002;2024-01-16T07:09:21;0.80;90.20
5960;DHT22;3006;50.956;7.002;2024-01-16T07:11:49;0.80;89.80
5960;DHT22;3006;50.956;7.002;2024-01-16T07:14:19;0.80;89.50
5960;DHT22;3006;50.956;7.002;2024-01-16T07:16:47;0.80;89.50
5960;DHT22;3006;50.956;7.002;2024-01-16T07:19:16;0.80;89.80
5960;DHT22;3006;50.956;7.002;2024-01-16T07:21:45;0.80;89.20
5960;DHT22;3006;50.956;7.002;2024-01-16T07:24:13;0.80;88.20
5960;DHT22;3006;50.956;7.002;2024-01-16T07:26:41;0.80;88.20
5960;DHT22;3006;50.956;7.002;2024-01-16T07:29:09;0.80;88.00
5960;DHT22;3006;50.956;7.002;2024-01-16T07:31:39;0.80;88.20
5960;DHT22;3006;50.956;7.002;2024-01-16T07:34:08;0.80;87.30
5960;DHT22;3006;50.956;7.002;2024-01-16T07:36:36;0.80;88.20
5960;DHT22;3006;50.956;7.002;2024-01-16T07:39:04;0.80;87.60
5960;DHT22;3006;50.956;7.002;2024-01-16T07:41:32;0.80;87.80
5960;DHT22;3006;50.956;7.002;2024-01-16T07:44:01;0.80;87.40
5960;DHT22;3006;50.956;7.002;2024-01-16T07:46:30;0.80;87.50
5960;DHT22;3006;50.956;7.002;2024-01-16T07:49:00;0.80;87.00
5960;DHT22;3006;50.956;7.002;2024-01-16T07:51:28;0.80;86.90
5960;DHT22;3006;50.956;7.002;2024-01-16T07:54:05;0.80;87.20
5960;DHT22;3006;50.956;7.002;2024-01-16T07:56:33;0.80;87.30
5960;DHT22;3006;50.956;7.002;2024-01-16T07:59:02;0.80;87.90
5960;DHT22;3006;50.956;7.002;2024-01-16T08:01:30;0.80;87.60
5960;DHT22;3006;50.956;7.002;2024-01-16T08:04:00;0.80;87.70
5960;DHT22;3006;50.956;7.002;2024-01-16T08:06:29;0.80;87.30
5960;DHT22;3006;50.956;7.002;2024-01-16T08:08:57;0.80;87.60
5960;DHT22;3006;50.956;7.002;2024-01-16T08:11:25;0.80;88.20
5960;DHT22;3006;50.956;7.002;2024-01-16T08:13:53;0.80;88.20
5960;DHT22;3006;50.956;7.002;2024-01-16T08:16:22;0.90;88.20
5960;DHT22;3006;50.956;7.002;2024-01-16T08:18:50;0.90;88.10
5960;DHT22;3006;50.956;7.002;2024-01-16T08:21:20;1.00;87.90
5960;DHT22;3006;50.956;7.002;2024-01-16T08:23:48;0.90;87.50
5960;DHT22;3006;50.956;7.002;2024-01-16T08:26:17;0.80;87.30
5960;DHT22;3006;50.956;7.002;2024-01-16T08:28:45;0.80;87.60
5960;DHT22;3006;50.956;7.002;2024-01-16T08:31:16;0.80;87.30
5960;DHT22;3006;50.956;7.002;2024-01-16T08:33:44;0.80;87.80
5960;DHT22;3006;50.956;7.002;2024-01-16T08:36:15;0.80;87.80
5960;DHT22;3006;50.956;7.002;2024-01-16T08:38:46;0.80;87.20
5960;DHT22;3006;50.956;7.002;2024-01-16T08:41:14;0.80;86.80
5960;DHT22;3006;50.956;7.002;2024-01-16T08:43:42;0.80;86.60
5960;DHT22;3006;50.956;7.002;2024-01-16T08:46:10;0.80;86.90
5960;DHT22;3006;50.956;7.002;2024-01-16T08:48:39;0.80;86.90
5960;DHT22;3006;50.956;7.002;2024-01-16T08:51:11;0.80;86.60
5960;DHT22;3006;50.956;7.002;2024-01-16T08:53:41;0.80;86.00
5960;DHT22;3006;50.956;7.002;2024-01-16T08:56:11;0.80;86.50
5960;DHT22;3006;50.956;7.002;2024-01-16T08:58:40;0.80;86.30
5960;DHT22;3006;50.956;7.002;2024-01-16T09:01:08;0.80;86.10
5960;DHT22;3006;50.956;7.002;2024-01-16T09:03:37;0.80;85.70
5960;DHT22;3006;50.956;7.002;2024-01-16T09:06:05;0.80;85.70
5960;DHT22;3006;50.956;7.002;2024-01-16T09:08:34;1.00;85.10
5960;DHT22;3006;50.956;7.002;2024-01-16T09:11:05;1.00;84.40
5960;DHT22;3006;50.956;7.002;2024-01-16T09:13:35;1.00;83.60
5960;DHT22;3006;50.956;7.002;2024-01-16T09:16:04;1.00;83.50
5960;DHT22;3006;50.956;7.002;2024-01-16T09:18:32;1.00;82.90
5960;DHT22;3006;50.956;7.002;2024-01-16T09:21:00;1.10;83.20
5960;DHT22;3006;50.956;7.002;2024-01-16T09:23:29;1.10;82.20
5960;DHT22;3006;50.956;7.002;2024-01-16T09:25:57;1.00;82.40
5960;DHT22;3006;50.956;7.002;2024-01-16T09:28:25;1.10;83.30
5960;DHT22;3006;50.956;7.002;2024-01-16T09:30:57;1.10;83.80
5960;DHT22;3006;50.956;7.002;2024-01-16T09:33:25;1.10;82.80
5960;DHT22;3006;50.956;7.002;2024-01-16T09:35:53;1.00;82.40
5960;DHT22;3006;50.956;7.002;2024-01-16T09:38:21;1.00;82.70
5960;DHT22;3006;50.956;7.002;2024-01-16T09:40:50;0.90;82.50
5960;DHT22;3006;50.956;7.002;2024-01-16T09:43:20;0.90;83.00
5960;DHT22;3006;50.956;7.002;2024-01-16T09:45:49;1.00;83.50
5960;DHT22;3006;50.956;7.002;2024-01-16T09:48:20;1.10;82.40
5960;DHT22;3006;50.956;7.002;2024-01-16T09:50:48;1.10;82.90
5960;DHT22;3006;50.956;7.002;2024-01-16T09:53:17;1.00;82.60
5960;DHT22;3006;50.956;7.002;2024-01-16T09:55:45;1.00;82.50
5960;DHT22;3006;50.956;7.002;2024-01-16T09:58:14;1.00;82.00
5960;DHT22;3006;50.956;7.002;2024-01-16T10:00:44;1.00;82.40
5960;DHT22;3006;50.956;7.002;2024-01-16T10:03:13;1.10;83.20
5960;DHT22;3006;50.956;7.002;2024-01-16T10:05:43;1.10;83.20
5960;DHT22;3006;50.956;7.002;2024-01-16T10:08:12;1.10;82.10
5960;DHT22;3006;50.956;7.002;2024-01-16T10:10:41;1.20;82.50
5960;DHT22;3006;50.956;7.002;2024-01-16T10:13:17;1.20;82.60
5960;DHT22;3006;50.956;7.002;2024-01-16T10:15:49;1.20;82.40
5960;DHT22;3006;50.956;7.002;2024-01-16T10:18:24;1.20;81.70
5960;DHT22;3006;50.956;7.002;2024-01-16T10:20:54;1.40;82.50
5960;DHT22;3006;50.956;7.002;2024-01-16T10:23:23;1.40;81.20
5960;DHT22;3006;50.956;7.002;2024-01-16T10:26:08;1.40;81.00
5960;DHT22;3006;50.956;7.002;2024-01-16T10:28:37;1.40;81.40
5960;DHT22;3006;50.956;7.002;2024-01-16T10:31:07;1.60;81.50
5960;DHT22;3006;50.956;7.002;2024-01-16T10:33:36;1.50;79.70
5960;DHT22;3006;50.956;7.002;2024-01-16T10:36:12;1.70;80.50
5960;DHT22;3006;50.956;7.002;2024-01-16T10:38:44;1.60;80.90
5960;DHT22;3006;50.956;7.002;2024-01-16T10:41:13;1.70;80.60
5960;DHT22;3006;50.956;7.002;2024-01-16T10:43:42;1.70;79.20
5960;DHT22;3006;50.956;7.002;2024-01-16T10:46:12;1.60;80.40
5960;DHT22;3006;50.956;7.002;2024-01-16T10:48:42;1.70;80.90
5960;DHT22;3006;50.956;7.002;2024-01-16T10:51:14;1.70;80.20
5960;DHT22;3006;50.956;7.002;2024-01-16T10:53:43;1.60;79.50
5960;DHT22;3006;50.956;7.002;2024-01-16T10:56:13;1.40;79.70
5960;DHT22;3006;50.956;7.002;2024-01-16T10:58:43;1.60;80.00
5960;DHT22;3006;50.956;7.002;2024-01-16T11:01:15;1.60;80.00
5960;DHT22;3006;50.956;7.002;2024-01-16T11:03:47;1.50;79.40
5960;DHT22;3006;50.956;7.002;2024-01-16T11:06:17;1.30;79.40
5960;DHT22;3006;50.956;7.002;2024-01-16T11:08:48;1.50;80.50
5960;DHT22;3006;50.956;7.002;2024-01-16T11:11:17;1.60;79.30
5960;DHT22;3006;50.956;7.002;2024-01-16T11:13:46;1.30;79.10
5960;DHT22;3006;50.956;7.002;2024-01-16T11:16:14;1.40;80.30
5960;DHT22;3006;50.956;7.002;2024-01-16T11:18:43;1.20;80.00
5960;DHT22;3006;50.956;7.002;2024-01-16T11:21:13;1.40;79.20
5960;DHT22;3006;50.956;7.002;2024-01-16T11:23:46;1.30;80.00
5960;DHT22;3006;50.956;7.002;2024-01-16T11:26:25;1.20;79.70
5960;DHT22;3006;50.956;7.002;2024-01-16T11:28:54;1.20;79.30
5960;DHT22;3006;50.956;7.002;2024-01-16T11:31:30;1.20;80.00
5960;DHT22;3006;50.956;7.002;2024-01-16T11:34:00;1.40;80.40
5960;DHT22;3006;50.956;7.002;2024-01-16T11:36:49;1.40;79.10
5960;DHT22;3006;50.956;7.002;2024-01-16T11:39:21;1.40;79.30
5960;DHT22;3006;50.956;7.002;2024-01-16T11:41:56;1.40;79.50
5960;DHT22;3006;50.956;7.002;2024-01-16T11:44:42;1.40;79.60
5960;DHT22;3006;50.956;7.002;2024-01-16T11:47:16;1.50;79.60
5960;DHT22;3006;50.956;7.002;2024-01-16T11:49:46;1.60;79.10
5960;DHT22;3006;50.956;7.002;2024-01-16T11:52:14;1.50;78.40
5960;DHT22;3006;50.956;7.002;2024-01-16T11:54:44;1.50;78.50
5960;DHT22;3006;50.956;7.002;2024-01-16T11:57:37;1.40;78.70
5960;DHT22;3006;50.956;7.002;2024-01-16T12:00:18;1.40;78.40
5960;DHT22;3006;50.956;7.002;2024-01-16T12:02:56;1.30;77.70
5960;DHT22;3006;50.956;7.002;2024-01-16T12:05:24;1.30;78.10
5960;DHT22;3006;50.956;7.002;2024-01-16T12:07:53;1.40;77.90
5960;DHT22;3006;50.956;7.002;2024-01-16T12:10:24;1.30;77.90
5960;DHT22;3006;50.956;7.002;2024-01-16T12:12:59;1.20;78.00
5960;DHT22;3006;50.956;7.002;2024-01-16T12:15:31;1.20;78.40
5960;DHT22;3006;50.956;7.002;2024-01-16T12:18:00;1.40;78.60
5960;DHT22;3006;50.956;7.002;2024-01-16T12:20:32;1.40;77.70
5960;DHT22;3006;50.956;7.002;2024-01-16T12:23:02;1.50;78.10
5960;DHT22;3006;50.956;7.002;2024-01-16T12:25:33;1.60;77.70
5960;DHT22;3006;50.956;7.002;2024-01-16T12:28:22;1.70;77.70
5960;DHT22;3006;50.956;7.002;2024-01-16T12:30:59;1.90;77.20
5960;DHT22;3006;50.956;7.002;2024-01-16T12:33:28;2.10;76.40
5960;DHT22;3006;50.956;7.002;2024-01-16T12:36:02;2.20;75.80
5960;DHT22;3006;50.956;7.002;2024-01-16T12:38:32;2.30;76.00
5960;DHT22;3006;50.956;7.002;2024-01-16T12:41:05;2.30;74.20
5960;DHT22;3006;50.956;7.002;2024-01-16T12:43:35;2.20;73.90
5960;DHT22;3006;50.956;7.002;2024-01-16T12:46:05;1.90;74.40
5960;DHT22;3006;50.956;7.002;2024-01-16T12:48:34;2.00;75.10
5960;DHT22;3006;50.956;7.002;2024-01-16T12:51:03;2.20;73.90
5960;DHT22;3006;50.956;7.002;2024-01-16T12:53:33;2.20;74.50
5960;DHT22;3006;50.956;7.002;2024-01-16T12:56:05;2.30;74.00
5960;DHT22;3006;50.956;7.002;2024-01-16T12:58:35;2.40;73.20
5960;DHT22;3006;50.956;7.002;2024-01-16T13:01:22;2.60;73.40
5960;DHT22;3006;50.956;7.002;2024-01-16T13:04:05;2.80;72.50
5960;DHT22;3006;50.956;7.002;2024-01-16T13:06:34;2.50;72.30
5960;DHT22;3006;50.956;7.002;2024-01-16T13:09:07;2.40;72.30
5960;DHT22;3006;50.956;7.002;2024-01-16T13:11:50;2.50;71.80
5960;DHT22;3006;50.956;7.002;2024-01-16T13:14:19;2.70;71.80
5960;DHT22;3006;50.956;7.002;2024-01-16T13:16:50;2.60;71.40
5960;DHT22;3006;50.956;7.002;2024-01-16T13:19:18;2.60;70.90
5960;DHT22;3006;50.956;7.002;2024-01-16T13:21:47;2.30;71.30
5960;DHT22;3006;50.956;7.002;2024-01-16T13:24:16;2.20;71.30
5960;DHT22;3006;50.956;7.002;2024-01-16T13:26:50;2.30;72.40
5960;DHT22;3006;50.956;7.002;2024-01-16T13:29:19;2.50;71.80
5960;DHT22;3006;50.956;7.002;2024-01-16T13:31:47;2.40;71.40
5960;DHT22;3006;50.956;7.002;2024-01-16T13:34:16;2.20;71.40
5960;DHT22;3006;50.956;7.002;2024-01-16T13:36:45;2.10;72.10
5960;DHT22;3006;50.956;7.002;2024-01-16T13:39:33;2.00;72.10
5960;DHT22;3006;50.956;7.002;2024-01-16T13:42:07;2.00;71.80
5960;DHT22;3006;50.956;7.002;2024-01-16T13:44:35;1.90;71.90
5960;DHT22;3006;50.956;7.002;2024-01-16T13:47:04;1.80;72.40
5960;DHT22;3006;50.956;7.002;2024-01-16T13:49:39;1.70;72.10
5960;DHT22;3006;50.956;7.002;2024-01-16T13:52:08;1.50;72.70
5960;DHT22;3006;50.956;7.002;2024-01-16T13:54:37;1.50;72.90
5960;DHT22;3006;50.956;7.002;2024-01-16T13:57:08;1.40;73.10
5960;DHT22;3006;50.956;7.002;2024-01-16T13:59:39;1.50;73.20
5960;DHT22;3006;50.956;7.002;2024-01-16T14:02:08;1.50;73.30
5960;DHT22;3006;50.956;7.002;2024-01-16T14:04:36;1.50;73.70
5960;DHT22;3006;50.956;7.002;2024-01-16T14:07:05;1.50;73.10
5960;DHT22;3006;50.956;7.002;2024-01-16T14:09:40;1.40;73.50
5960;DHT22;3006;50.956;7.002;2024-01-16T14:12:13;1.50;73.30
5960;DHT22;3006;50.956;7.002;2024-01-16T14:14:42;1.40;73.00
5960;DHT22;3006;50.956;7.002;2024-01-16T14:17:10;1.40;73.70
5960;DHT22;3006;50.956;7.002;2024-01-16T14:19:39;1.40;74.30
5960;DHT22;3006;50.956;7.002;2024-01-16T14:22:07;1.40;73.60
5960;DHT22;3006;50.956;7.002;2024-01-16T14:24:36;1.40;73.70
5960;DHT22;3006;50.956;7.002;2024-01-16T14:27:05;1.40;73.20
5960;DHT22;3006;50.956;7.002;2024-01-16T14:29:37;1.40;73.10
5960;DHT22;3006;50.956;7.002;2024-01-16T14:32:07;1.50;73.00
5960;DHT22;3006;50.956;7.002;2024-01-16T14:34:38;1.40;73.20
5960;DHT22;3006;50.956;7.002;2024-01-16T14:37:06;1.40;73.30
5960;DHT22;3006;50.956;7.002;2024-01-16T14:39:34;1.40;73.00
5960;DHT22;3006;50.956;7.002;2024-01-16T14:42:04;1.40;72.40
5960;DHT22;3006;50.956;7.002;2024-01-16T14:44:34;1.40;72.20
5960;DHT22;3006;50.956;7.002;2024-01-16T14:47:03;1.40;72.10
5960;DHT22;3006;50.956;7.002;2024-01-16T14:49:31;1.40;72.10
5960;DHT22;3006;50.956;7.002;2024-01-16T14:52:01;1.30;72.20
5960;DHT22;3006;50.956;7.002;2024-01-16T14:54:30;1.20;72.30
5960;DHT22;3006;50.956;7.002;2024-01-16T14:56:58;1.20;71.70
5960;DHT22;3006;50.956;7.002;2024-01-16T14:59:27;1.10;72.40
5960;DHT22;3006;50.956;7.002;2024-01-16T15:01:57;1.10;71.60
5960;DHT22;3006;50.956;7.002;2024-01-16T15:04:25;1.00;71.60
5960;DHT22;3006;50.956;7.002;2024-01-16T15:06:53;1.00;72.30
5960;DHT22;3006;50.956;7.002;2024-01-16T15:09:22;1.10;71.60
5960;DHT22;3006;50.956;7.002;2024-01-16T15:11:50;1.00;71.70
5960;DHT22;3006;50.956;7.002;2024-01-16T15:14:20;1.00;71.70
5960;DHT22;3006;50.956;7.002;2024-01-16T15:16:48;1.00;70.90
5960;DHT22;3006;50.956;7.002;2024-01-16T15:19:19;1.00;70.90
5960;DHT22;3006;50.956;7.002;2024-01-16T15:21:47;1.00;71.40
5960;DHT22;3006;50.956;7.002;2024-01-16T15:24:16;0.90;70.70
5960;DHT22;3006;50.956;7.002;2024-01-16T15:26:48;0.90;70.30
5960;DHT22;3006;50.956;7.002;2024-01-16T15:29:17;1.00;70.70
5960;DHT22;3006;50.956;7.002;2024-01-16T15:31:45;1.00;70.00
5960;DHT22;3006;50.956;7.002;2024-01-16T15:34:13;1.00;70.10
5960;DHT22;3006;50.956;7.002;2024-01-16T15:36:45;0.90;70.00
5960;DHT22;3006;50.956;7.002;2024-01-16T15:39:14;0.80;70.20
5960;DHT22;3006;50.956;7.002;2024-01-16T15:41:43;0.80;70.20
5960;DHT22;3006;50.956;7.002;2024-01-16T15:44:12;0.80;69.80
5960;DHT22;3006;50.956;7.002;2024-01-16T15:46:54;0.80;70.10
5960;DHT22;3006;50.956;7.002;2024-01-16T15:49:22;0.80;70.20
5960;DHT22;3006;50.956;7.002;2024-01-16T15:51:53;0.80;70.50
5960;DHT22;3006;50.956;7.002;2024-01-16T15:54:21;0.80;70.40
5960;DHT22;3006;50.956;7.002;2024-01-16T15:56:50;0.80;69.90
5960;DHT22;3006;50.956;7.002;2024-01-16T15:59:18;0.80;69.30
5960;DHT22;3006;50.956;7.002;2024-01-16T16:01:47;0.60;69.60
5960;DHT22;3006;50.956;7.002;2024-01-16T16:04:15;0.60;69.80
5960;DHT22;3006;50.956;7.002;2024-01-16T16:06:44;0.60;69.50
5960;DHT22;3006;50.956;7.002;2024-01-16T16:09:13;0.60;69.80
5960;DHT22;3006;50.956;7.002;2024-01-16T16:11:42;0.60;70.80
5960;DHT22;3006;50.956;7.002;2024-01-16T16:14:13;0.60;71.10
5960;DHT22;3006;50.956;7.002;2024-01-16T16:16:42;0.60;70.70
5960;DHT22;3006;50.956;7.002;2024-01-16T16:19:11;0.60;71.20
5960;DHT22;3006;50.956;7.002;2024-01-16T16:21:39;0.60;71.20
5960;DHT22;3006;50.956;7.002;2024-01-16T16:24:08;0.60;71.10
5960;DHT22;3006;50.956;7.002;2024-01-16T16:26:39;0.60;70.90
5960;DHT22;3006;50.956;7.002;2024-01-16T16:29:11;0.60;71.10
5960;DHT22;3006;50.956;7.002;2024-01-16T16:31:41;0.50;71.40